sensor_id;sensor_type;location;lat;lon;timestamp;pressure;altitude;pressure_sealevel;temperature;humidity
21182;BME280;10749;46.296;7.524;2023-06-10T00:02:10;94535.03;;;21.70;55.37
21182;BME280;10749;46.296;7.524;2023-06-10T00:04:35;94537.25;;;21.73;55.20
21182;BME280;10749;46.296;7.524;2023-06-10T00:07:05;94533.97;;;21.71;54.96
21182;BME280;10749;46.296;7.524;2023-06-10T00:09:37;94532.34;;;21.70;55.22
21182;BME280;10749;46.296;7.524;2023-06-10T00:12:04;94536.13;;;21.69;55.26
21182;BME280;10749;46.296;7.524;2023-06-10T00:14:30;94540.94;;;21.67;55.54
21182;BME280;10749;46.296;7.524;2023-06-10T00:16:55;94532.31;;;21.65;55.69
21182;BME280;10749;46.296;7.524;2023-06-10T00:19:22;94533.91;;;21.61;55.83
21182;BME280;10749;46.296;7.524;2023-06-10T00:21:51;94528.00;;;21.64;55.75
21182;BME280;10749;46.296;7.524;2023-06-10T00:24:17;94526.88;;;21.60;55.75
21182;BME280;10749;46.296;7.524;2023-06-10T00:26:43;94531.66;;;21.53;55.97
21182;BME280;10749;46.296;7.524;2023-06-10T00:29:08;94534.38;;;21.53;56.24
21182;BME280;10749;46.296;7.524;2023-06-10T00:31:34;94532.66;;;21.47;56.36
21182;BME280;10749;46.296;7.524;2023-06-10T00:34:00;94533.69;;;21.41;56.75
21182;BME280;10749;46.296;7.524;2023-06-10T00:36:25;94525.63;;;21.41;56.47
21182;BME280;10749;46.296;7.524;2023-06-10T00:38:51;94534.19;;;21.38;56.62
21182;BME280;10749;46.296;7.524;2023-06-10T00:41:16;94529.63;;;21.38;56.96
21182;BME280;10749;46.296;7.524;2023-06-10T00:43:42;94528.81;;;21.38;57.04
21182;BME280;10749;46.296;7.524;2023-06-10T00:46:07;94529.91;;;21.42;56.70
21182;BME280;10749;46.296;7.524;2023-06-10T00:48:32;94534.53;;;21.46;56.37
21182;BME280;10749;46.296;7.524;2023-06-10T00:50:59;94530.03;;;21.52;56.41
21182;BME280;10749;46.296;7.524;2023-06-10T00:53:25;94527.34;;;21.52;56.47
21182;BME280;10749;46.296;7.524;2023-06-10T00:55:51;94525.94;;;21.49;56.71
21182;BME280;10749;46.296;7.524;2023-06-10T00:58:16;94531.66;;;21.53;56.60
21182;BME280;10749;46.296;7.524;2023-06-10T01:00:41;94527.88;;;21.54;56.61
21182;BME280;10749;46.296;7.524;2023-06-10T01:03:07;94526.59;;;21.56;56.73
21182;BME280;10749;46.296;7.524;2023-06-10T01:05:34;94529.22;;;21.51;57.31
21182;BME280;10749;46.296;7.524;2023-06-10T01:08:09;94521.69;;;21.53;57.21
21182;BME280;10749;46.296;7.524;2023-06-10T01:10:43;94522.50;;;21.54;57.38
21182;BME280;10749;46.296;7.524;2023-06-10T01:13:13;94526.28;;;21.53;57.74
21182;BME280;10749;46.296;7.524;2023-06-10T01:15:39;94527.88;;;21.54;57.29
21182;BME280;10749;46.296;7.524;2023-06-10T01:18:09;94525.16;;;21.49;57.71
21182;BME280;10749;46.296;7.524;2023-06-10T01:20:36;94522.97;;;21.46;57.30
21182;BME280;10749;46.296;7.524;2023-06-10T01:23:05;94528.88;;;21.43;57.65
21182;BME280;10749;46.296;7.524;2023-06-10T01:25:31;94532.59;;;21.37;57.28
21182;BME280;10749;46.296;7.524;2023-06-10T01:33:19;94535.22;;;21.32;58.25
21182;BME280;10749;46.296;7.524;2023-06-10T01:35:49;94534.09;;;21.28;57.99
21182;BME280;10749;46.296;7.524;2023-06-10T01:38:15;94536.78;;;21.28;58.49
21182;BME280;10749;46.296;7.524;2023-06-10T01:40:43;94530.84;;;21.26;58.28
21182;BME280;10749;46.296;7.524;2023-06-10T01:43:09;94538.66;;;21.27;58.41
21182;BME280;10749;46.296;7.524;2023-06-10T01:45:34;94533.28;;;21.27;57.97
21182;BME280;10749;46.296;7.524;2023-06-10T01:47:59;94529.31;;;21.35;57.49
21182;BME280;10749;46.296;7.524;2023-06-10T01:50:25;94533.59;;;21.31;58.15
21182;BME280;10749;46.296;7.524;2023-06-10T01:52:50;94532.72;;;21.25;58.40
21182;BME280;10749;46.296;7.524;2023-06-10T01:55:15;94529.53;;;21.28;58.38
21182;BME280;10749;46.296;7.524;2023-06-10T01:57:41;94534.34;;;21.26;58.59
21182;BME280;10749;46.296;7.524;2023-06-10T02:00:07;94526.25;;;21.26;58.14
21182;BME280;10749;46.296;7.524;2023-06-10T02:02:33;94529.78;;;21.27;58.03
21182;BME280;10749;46.296;7.524;2023-06-10T02:04:58;94538.91;;;21.26;58.48
21182;BME280;10749;46.296;7.524;2023-06-10T02:07:23;94537.53;;;21.23;58.64
21182;BME280;10749;46.296;7.524;2023-06-10T02:09:48;94533.16;;;21.17;56.88
21182;BME280;10749;46.296;7.524;2023-06-10T02:12:14;94532.75;;;21.08;55.76
21182;BME280;10749;46.296;7.524;2023-06-10T02:14:39;94533.19;;;21.00;55.26
21182;BME280;10749;46.296;7.524;2023-06-10T02:17:05;94529.31;;;20.91;55.67
21182;BME280;10749;46.296;7.524;2023-06-10T02:19:30;94529.84;;;20.88;56.71
21182;BME280;10749;46.296;7.524;2023-06-10T02:21:56;94528.03;;;20.94;57.18
21182;BME280;10749;46.296;7.524;2023-06-10T02:24:21;94537.22;;;20.98;57.90
21182;BME280;10749;46.296;7.524;2023-06-10T02:26:46;94527.81;;;21.00;57.36
21182;BME280;10749;46.296;7.524;2023-06-10T02:29:13;94525.13;;;21.00;56.43
21182;BME280;10749;46.296;7.524;2023-06-10T02:31:38;94536.91;;;20.94;57.60
21182;BME280;10749;46.296;7.524;2023-06-10T02:34:04;94533.41;;;20.94;58.14
21182;BME280;10749;46.296;7.524;2023-06-10T02:36:30;94542.28;;;20.94;58.56
21182;BME280;10749;46.296;7.524;2023-06-10T02:38:55;94540.16;;;20.96;58.54
21182;BME280;10749;46.296;7.524;2023-06-10T02:41:20;94542.28;;;20.94;59.04
21182;BME280;10749;46.296;7.524;2023-06-10T02:43:47;94535.84;;;20.95;59.04
21182;BME280;10749;46.296;7.524;2023-06-10T02:46:12;94532.59;;;20.93;59.02
21182;BME280;10749;46.296;7.524;2023-06-10T02:48:41;94536.91;;;20.94;59.32
21182;BME280;10749;46.296;7.524;2023-06-10T02:51:08;94536.84;;;20.89;59.66
21182;BME280;10749;46.296;7.524;2023-06-10T02:53:33;94535.84;;;20.95;59.57
21182;BME280;10749;46.296;7.524;2023-06-10T02:55:58;94538.53;;;20.95;59.53
21182;BME280;10749;46.296;7.524;2023-06-10T02:58:24;94542.34;;;20.99;59.51
21182;BME280;10749;46.296;7.524;2023-06-10T03:00:51;94543.84;;;20.90;59.74
21182;BME280;10749;46.296;7.524;2023-06-10T03:03:16;94545.47;;;20.91;59.74
21182;BME280;10749;46.296;7.524;2023-06-10T03:05:41;94547.59;;;20.89;59.75
21182;BME280;10749;46.296;7.524;2023-06-10T03:08:07;94552.97;;;20.89;59.87
21182;BME280;10749;46.296;7.524;2023-06-10T03:10:32;94555.97;;;20.93;59.94
21182;BME280;10749;46.296;7.524;2023-06-10T03:12:58;94551.34;;;20.88;60.56
21182;BME280;10749;46.296;7.524;2023-06-10T03:15:23;94555.59;;;20.84;60.54
21182;BME280;10749;46.296;7.524;2023-06-10T03:17:49;94550.50;;;20.83;60.39
21182;BME280;10749;46.296;7.524;2023-06-10T03:20:14;94556.09;;;20.81;60.26
21182;BME280;10749;46.296;7.524;2023-06-10T03:22:41;94556.09;;;20.81;60.26
21182;BME280;10749;46.296;7.524;2023-06-10T03:25:07;94550.72;;;20.81;59.48
21182;BME280;10749;46.296;7.524;2023-06-10T03:27:38;94557.75;;;20.82;59.22
21182;BME280;10749;46.296;7.524;2023-06-10T03:30:03;94552.59;;;20.81;59.84
21182;BME280;10749;46.296;7.524;2023-06-10T03:32:28;94556.84;;;20.77;60.27
21182;BME280;10749;46.296;7.524;2023-06-10T03:34:54;94562.16;;;20.71;60.54
21182;BME280;10749;46.296;7.524;2023-06-10T03:37:22;94561.84;;;20.68;60.80
21182;BME280;10749;46.296;7.524;2023-06-10T03:39:47;94567.53;;;20.71;60.41
21182;BME280;10749;46.296;7.524;2023-06-10T03:42:13;94560.72;;;20.64;61.01
21182;BME280;10749;46.296;7.524;2023-06-10T03:44:38;94566.34;;;20.62;60.19
21182;BME280;10749;46.296;7.524;2023-06-10T03:47:03;94562.09;;;20.66;60.44
21182;BME280;10749;46.296;7.524;2023-06-10T03:49:29;94562.34;;;20.65;60.11
21182;BME280;10749;46.296;7.524;2023-06-10T03:51:55;94568.03;;;20.68;60.38
21182;BME280;10749;46.296;7.524;2023-06-10T03:54:21;94565.59;;;20.67;60.91
21182;BME280;10749;46.296;7.524;2023-06-10T03:56:47;94573.41;;;20.68;60.85
21182;BME280;10749;46.296;7.524;2023-06-10T03:59:13;94574.25;;;20.69;60.80
21182;BME280;10749;46.296;7.524;2023-06-10T04:01:38;94577.97;;;20.68;61.04
21182;BME280;10749;46.296;7.524;2023-06-10T04:04:06;94574.75;;;20.66;60.97
21182;BME280;10749;46.296;7.524;2023-06-10T04:06:31;94568.22;;;20.62;61.40
21182;BME280;10749;46.296;7.524;2023-06-10T04:08:57;94575.22;;;20.63;61.19
21182;BME280;10749;46.296;7.524;2023-06-10T04:11:23;94577.34;;;20.61;61.17
21182;BME280;10749;46.296;7.524;2023-06-10T04:13:49;94575.72;;;20.60;61.31
21182;BME280;10749;46.296;7.524;2023-06-10T04:16:14;94571.47;;;20.64;60.39
21182;BME280;10749;46.296;7.524;2023-06-10T04:18:40;94575.78;;;20.65;60.26
21182;BME280;10749;46.296;7.524;2023-06-10T04:21:06;94579.22;;;20.60;60.41
21182;BME280;10749;46.296;7.524;2023-06-10T04:23:32;94571.41;;;20.59;59.54
21182;BME280;10749;46.296;7.524;2023-06-10T04:25:57;94571.34;;;20.54;60.15
21182;BME280;10749;46.296;7.524;2023-06-10T04:28:24;94582.88;;;20.54;60.83
21182;BME280;10749;46.296;7.524;2023-06-10T04:30:50;94578.31;;;20.55;61.00
21182;BME280;10749;46.296;7.524;2023-06-10T04:33:15;94573.44;;;20.52;61.55
21182;BME280;10749;46.296;7.524;2023-06-10T04:35:41;94579.41;;;20.54;61.33
21182;BME280;10749;46.296;7.524;2023-06-10T04:38:07;94578.19;;;20.45;61.38
21182;BME280;10749;46.296;7.524;2023-06-10T04:40:33;94577.88;;;20.41;60.76
21182;BME280;10749;46.296;7.524;2023-06-10T04:42:58;94579.66;;;20.36;60.63
21182;BME280;10749;46.296;7.524;2023-06-10T04:45:23;94581.78;;;20.34;61.49
21182;BME280;10749;46.296;7.524;2023-06-10T04:47:49;94587.22;;;20.39;61.19
21182;BME280;10749;46.296;7.524;2023-06-10T04:50:14;94589.75;;;20.45;61.09
21182;BME280;10749;46.296;7.524;2023-06-10T04:52:40;94587.31;;;20.44;61.57
21182;BME280;10749;46.296;7.524;2023-06-10T04:55:07;94590.56;;;20.46;61.58
21182;BME280;10749;46.296;7.524;2023-06-10T04:57:32;94593.19;;;20.41;61.83
21182;BME280;10749;46.296;7.524;2023-06-10T04:59:57;94599.84;;;20.38;61.78
21182;BME280;10749;46.296;7.524;2023-06-10T05:02:23;94602.81;;;20.37;61.98
21182;BME280;10749;46.296;7.524;2023-06-10T05:04:48;94601.16;;;20.36;61.49
21182;BME280;10749;46.296;7.524;2023-06-10T05:07:13;94600.25;;;20.30;61.93
21182;BME280;10749;46.296;7.524;2023-06-10T05:09:39;94608.66;;;20.34;61.81
21182;BME280;10749;46.296;7.524;2023-06-10T05:12:05;94604.91;;;20.35;61.66
21182;BME280;10749;46.296;7.524;2023-06-10T05:14:30;94605.88;;;20.28;62.12
21182;BME280;10749;46.296;7.524;2023-06-10T05:16:56;94603.91;;;20.24;62.12
21182;BME280;10749;46.296;7.524;2023-06-10T05:19:22;94598.66;;;20.29;62.02
21182;BME280;10749;46.296;7.524;2023-06-10T05:21:47;94610.78;;;20.32;61.87
21182;BME280;10749;46.296;7.524;2023-06-10T05:24:13;94611.25;;;20.28;61.37
21182;BME280;10749;46.296;7.524;2023-06-10T05:26:38;94607.97;;;20.26;61.65
21182;BME280;10749;46.296;7.524;2023-06-10T05:29:04;94602.28;;;20.23;62.01
21182;BME280;10749;46.296;7.524;2023-06-10T05:31:30;94601.97;;;20.19;61.88
21182;BME280;10749;46.296;7.524;2023-06-10T05:33:55;94607.16;;;20.09;61.78
21182;BME280;10749;46.296;7.524;2023-06-10T05:36:21;94609.59;;;20.11;62.07
21182;BME280;10749;46.296;7.524;2023-06-10T05:38:46;94619.03;;;20.13;60.95
21182;BME280;10749;46.296;7.524;2023-06-10T05:41:11;94624.91;;;20.10;61.23
21182;BME280;10749;46.296;7.524;2023-06-10T05:43:37;94624.91;;;20.10;61.84
21182;BME280;10749;46.296;7.524;2023-06-10T05:46:02;94628.19;;;20.12;62.38
21182;BME280;10749;46.296;7.524;2023-06-10T05:48:27;94625.72;;;20.11;62.46
21182;BME280;10749;46.296;7.524;2023-06-10T05:50:53;94624.91;;;20.10;62.63
21182;BME280;10749;46.296;7.524;2023-06-10T05:53:18;94621.72;;;20.13;62.22
21182;BME280;10749;46.296;7.524;2023-06-10T05:55:44;94623.94;;;20.16;62.40
21182;BME280;10749;46.296;7.524;2023-06-10T05:58:10;94633.38;;;20.19;62.26
21182;BME280;10749;46.296;7.524;2023-06-10T06:00:37;94627.69;;;20.15;62.37
21182;BME280;10749;46.296;7.524;2023-06-10T06:03:03;94634.59;;;20.11;62.49
21182;BME280;10749;46.296;7.524;2023-06-10T06:05:28;94634.69;;;20.16;62.61
21182;BME280;10749;46.296;7.524;2023-06-10T06:08:00;94625.81;;;20.16;62.30
21182;BME280;10749;46.296;7.524;2023-06-10T06:10:25;94624.50;;;20.18;61.92
21182;BME280;10749;46.296;7.524;2023-06-10T06:12:50;94631.19;;;20.16;62.19
21182;BME280;10749;46.296;7.524;2023-06-10T06:15:15;94632.25;;;20.15;62.92
21182;BME280;10749;46.296;7.524;2023-06-10T06:17:41;94625.72;;;20.11;62.96
21182;BME280;10749;46.296;7.524;2023-06-10T06:20:06;94638.94;;;20.12;63.26
21182;BME280;10749;46.296;7.524;2023-06-10T06:22:32;94631.09;;;20.11;63.04
21182;BME280;10749;46.296;7.524;2023-06-10T06:24:57;94635.66;;;20.10;63.34
21182;BME280;10749;46.296;7.524;2023-06-10T06:27:22;94638.56;;;20.09;63.57
21182;BME280;10749;46.296;7.524;2023-06-10T06:29:48;94640.31;;;20.15;63.27
21182;BME280;10749;46.296;7.524;2023-06-10T06:32:13;94635.16;;;20.13;63.21
21182;BME280;10749;46.296;7.524;2023-06-10T06:34:38;94642.19;;;20.14;63.30
21182;BME280;10749;46.296;7.524;2023-06-10T06:37:04;94642.66;;;20.11;63.53
21182;BME280;10749;46.296;7.524;2023-06-10T06:39:29;94638.34;;;20.10;63.44
21182;BME280;10749;46.296;7.524;2023-06-10T06:41:54;94637.53;;;20.10;63.46
21182;BME280;10749;46.296;7.524;2023-06-10T06:44:20;94640.53;;;20.13;63.21
21182;BME280;10749;46.296;7.524;2023-06-10T06:46:45;94633.06;;;20.15;63.34
21182;BME280;10749;46.296;7.524;2023-06-10T06:49:10;94635.16;;;20.13;63.34
21182;BME280;10749;46.296;7.524;2023-06-10T06:51:36;94640.53;;;20.13;63.58
21182;BME280;10749;46.296;7.524;2023-06-10T06:54:02;94641.13;;;20.15;63.58
21182;BME280;10749;46.296;7.524;2023-06-10T06:56:28;94633.56;;;20.12;63.84
21182;BME280;10749;46.296;7.524;2023-06-10T06:58:53;94638.44;;;20.15;63.56
21182;BME280;10749;46.296;7.524;2023-06-10T07:01:18;94639.31;;;20.21;63.32
21182;BME280;10749;46.296;7.524;2023-06-10T07:03:43;94639.09;;;20.22;63.75
21182;BME280;10749;46.296;7.524;2023-06-10T07:06:09;94638.84;;;20.24;63.63
21182;BME280;10749;46.296;7.524;2023-06-10T07:08:34;94642.34;;;20.24;63.87
21182;BME280;10749;46.296;7.524;2023-06-10T07:11:00;94641.53;;;20.24;63.82
21182;BME280;10749;46.296;7.524;2023-06-10T07:13:25;94639.41;;;20.26;64.12
21182;BME280;10749;46.296;7.524;2023-06-10T07:15:50;94644.78;;;20.26;63.54
21182;BME280;10749;46.296;7.524;2023-06-10T07:18:16;94649.47;;;20.31;63.97
21182;BME280;10749;46.296;7.524;2023-06-10T07:20:42;94657.03;;;20.34;64.00
21182;BME280;10749;46.296;7.524;2023-06-10T07:23:07;94650.69;;;20.40;63.70
21182;BME280;10749;46.296;7.524;2023-06-10T07:25:33;94655.06;;;20.46;63.51
21182;BME280;10749;46.296;7.524;2023-06-10T07:27:58;94653.13;;;20.58;63.24
21182;BME280;10749;46.296;7.524;2023-06-10T07:30:23;94664.53;;;20.65;63.43
21182;BME280;10749;46.296;7.524;2023-06-10T07:32:48;94659.22;;;20.70;63.30
21182;BME280;10749;46.296;7.524;2023-06-10T07:35:14;94654.91;;;20.69;63.46
21182;BME280;10749;46.296;7.524;2023-06-10T07:37:39;94657.69;;;20.74;63.59
21182;BME280;10749;46.296;7.524;2023-06-10T07:40:05;94662.56;;;20.77;63.15
21182;BME280;10749;46.296;7.524;2023-06-10T07:42:35;94668.56;;;20.84;63.11
21182;BME280;10749;46.296;7.524;2023-06-10T07:45:05;94657.38;;;20.92;63.13
21182;BME280;10749;46.296;7.524;2023-06-10T07:47:32;94655.50;;;20.93;63.25
21182;BME280;10749;46.296;7.524;2023-06-10T07:49:57;94654.53;;;20.99;63.36
21182;BME280;10749;46.296;7.524;2023-06-10T07:52:23;94658.66;;;21.06;63.66
21182;BME280;10749;46.296;7.524;2023-06-10T07:54:48;94657.22;;;21.15;63.16
21182;BME280;10749;46.296;7.524;2023-06-10T07:57:13;94662.72;;;21.26;63.48
21182;BME280;10749;46.296;7.524;2023-06-10T07:59:39;94662.28;;;21.34;63.16
21182;BME280;10749;46.296;7.524;2023-06-10T08:02:05;94652.63;;;21.38;61.77
21182;BME280;10749;46.296;7.524;2023-06-10T08:04:30;94649.56;;;21.29;61.35
21182;BME280;10749;46.296;7.524;2023-06-10T08:06:56;94649.88;;;21.33;62.10
21182;BME280;10749;46.296;7.524;2023-06-10T08:09:21;94658.66;;;21.45;62.45
21182;BME280;10749;46.296;7.524;2023-06-10T08:11:48;94654.13;;;21.50;62.61
21182;BME280;10749;46.296;7.524;2023-06-10T08:14:14;94660.91;;;21.53;62.70
21182;BME280;10749;46.296;7.524;2023-06-10T08:16:39;94664.22;;;21.60;62.42
21182;BME280;10749;46.296;7.524;2023-06-10T08:19:05;94659.19;;;21.69;62.00
21182;BME280;10749;46.296;7.524;2023-06-10T08:21:30;94663.25;;;21.71;62.11
21182;BME280;10749;46.296;7.524;2023-06-10T08:23:56;94660.63;;;21.76;62.46
21182;BME280;10749;46.296;7.524;2023-06-10T08:26:21;94657.47;;;21.84;62.65
21182;BME280;10749;46.296;7.524;2023-06-10T08:28:47;94653.72;;;21.85;62.29
21182;BME280;10749;46.296;7.524;2023-06-10T08:31:12;94655.34;;;21.86;62.23
21182;BME280;10749;46.296;7.524;2023-06-10T08:33:37;94657.06;;;21.92;62.11
21182;BME280;10749;46.296;7.524;2023-06-10T08:36:03;94656.06;;;22.03;62.14
21182;BME280;10749;46.296;7.524;2023-06-10T08:38:28;94655.34;;;21.86;61.28
21182;BME280;10749;46.296;7.524;2023-06-10T08:40:56;94659.09;;;21.85;61.67
21182;BME280;10749;46.296;7.524;2023-06-10T08:43:45;94659.09;;;21.85;61.87
21182;BME280;10749;46.296;7.524;2023-06-10T08:46:13;94662.09;;;21.89;61.83
21182;BME280;10749;46.296;7.524;2023-06-10T08:48:42;94658.75;;;21.98;61.90
21182;BME280;10749;46.296;7.524;2023-06-10T08:51:10;94664.16;;;22.03;61.57
21182;BME280;10749;46.296;7.524;2023-06-10T08:53:37;94653.38;;;22.03;61.66
21182;BME280;10749;46.296;7.524;2023-06-10T08:56:04;94649.78;;;21.93;60.92
21182;BME280;10749;46.296;7.524;2023-06-10T08:58:32;94654.47;;;21.81;60.73
21182;BME280;10749;46.296;7.524;2023-06-10T09:00:58;94653.16;;;21.83;61.11
21182;BME280;10749;46.296;7.524;2023-06-10T09:03:25;94659.75;;;21.92;61.80
21182;BME280;10749;46.296;7.524;2023-06-10T09:05:50;94661.44;;;21.98;61.63
21182;BME280;10749;46.296;7.524;2023-06-10T09:08:16;94653.94;;;22.05;61.74
21182;BME280;10749;46.296;7.524;2023-06-10T09:10:42;94657.81;;;22.15;61.54
21182;BME280;10749;46.296;7.524;2023-06-10T09:13:07;94655.97;;;22.20;61.45
21182;BME280;10749;46.296;7.524;2023-06-10T09:15:33;94655.25;;;22.30;61.11
21182;BME280;10749;46.296;7.524;2023-06-10T09:17:59;94653.13;;;22.32;61.30
21182;BME280;10749;46.296;7.524;2023-06-10T09:20:25;94650.91;;;22.24;61.23
21182;BME280;10749;46.296;7.524;2023-06-10T09:22:50;94654.25;;;22.36;61.38
21182;BME280;10749;46.296;7.524;2023-06-10T09:25:15;94652.44;;;22.46;61.17
21182;BME280;10749;46.296;7.524;2023-06-10T09:27:51;94654.53;;;22.39;61.34
21182;BME280;10749;46.296;7.524;2023-06-10T09:30:27;94652.09;;;22.38;61.17
21182;BME280;10749;46.296;7.524;2023-06-10T09:32:56;94656.53;;;22.54;61.13
21182;BME280;10749;46.296;7.524;2023-06-10T09:35:23;94651.69;;;22.56;60.93
21182;BME280;10749;46.296;7.524;2023-06-10T09:37:51;94655.81;;;22.64;61.07
21182;BME280;10749;46.296;7.524;2023-06-10T09:40:17;94653.75;;;22.76;61.02
21182;BME280;10749;46.296;7.524;2023-06-10T09:42:42;94647.03;;;22.78;61.04
21182;BME280;10749;46.296;7.524;2023-06-10T09:45:07;94653.50;;;22.77;61.09
21182;BME280;10749;46.296;7.524;2023-06-10T09:47:33;94652.75;;;22.87;61.12
21182;BME280;10749;46.296;7.524;2023-06-10T09:49:58;94650.13;;;22.97;60.90
21182;BME280;10749;46.296;7.524;2023-06-10T09:52:24;94643.38;;;22.99;60.91
21182;BME280;10749;46.296;7.524;2023-06-10T09:54:55;94640.63;;;22.94;60.57
21182;BME280;10749;46.296;7.524;2023-06-10T09:57:24;94644.94;;;22.90;60.47
21182;BME280;10749;46.296;7.524;2023-06-10T09:59:53;94647.13;;;22.93;60.20
21182;BME280;10749;46.296;7.524;2023-06-10T10:02:19;94643.38;;;22.99;60.65
21182;BME280;10749;46.296;7.524;2023-06-10T10:04:44;94642.84;;;23.02;60.32
21182;BME280;10749;46.296;7.524;2023-06-10T10:07:11;94644.53;;;23.14;60.39
21182;BME280;10749;46.296;7.524;2023-06-10T10:09:40;94633.22;;;23.17;60.09
21182;BME280;10749;46.296;7.524;2023-06-10T10:12:09;94638.34;;;23.13;59.66
21182;BME280;10749;46.296;7.524;2023-06-10T10:14:36;94640.25;;;23.18;60.17
21182;BME280;10749;46.296;7.524;2023-06-10T10:17:04;94631.66;;;23.26;60.26
21182;BME280;10749;46.296;7.524;2023-06-10T10:19:32;94632.75;;;23.30;59.90
21182;BME280;10749;46.296;7.524;2023-06-10T10:22:07;94630.59;;;23.27;59.62
21182;BME280;10749;46.296;7.524;2023-06-10T10:24:52;94624.06;;;23.18;59.58
21182;BME280;10749;46.296;7.524;2023-06-10T10:27:21;94625.69;;;23.19;59.44
21182;BME280;10749;46.296;7.524;2023-06-10T10:29:52;94624.06;;;23.18;59.28
21182;BME280;10749;46.296;7.524;2023-06-10T10:32:22;94618.13;;;23.21;59.28
21182;BME280;10749;46.296;7.524;2023-06-10T10:37:17;94627.75;;;23.07;59.17
21182;BME280;10749;46.296;7.524;2023-06-10T10:39:44;94623.69;;;23.04;58.94
21182;BME280;10749;46.296;7.524;2023-06-10T10:42:10;94615.28;;;22.95;58.67
21182;BME280;10749;46.296;7.524;2023-06-10T10:44:37;94614.16;;;22.81;58.96
21182;BME280;10749;46.296;7.524;2023-06-10T10:47:04;94608.75;;;22.86;59.22
21182;BME280;10749;46.296;7.524;2023-06-10T10:49:33;94614.19;;;22.91;59.01
21182;BME280;10749;46.296;7.524;2023-06-10T10:52:01;94612.63;;;23.00;59.16
21182;BME280;10749;46.296;7.524;2023-06-10T10:54:32;94618.56;;;23.02;59.05
21182;BME280;10749;46.296;7.524;2023-06-10T10:57:17;94608.25;;;22.89;58.91
21182;BME280;10749;46.296;7.524;2023-06-10T10:59:51;94615.53;;;22.89;58.62
21182;BME280;10749;46.296;7.524;2023-06-10T11:02:17;94616.63;;;22.93;58.63
21182;BME280;10749;46.296;7.524;2023-06-10T11:04:47;94611.53;;;22.96;59.09
21182;BME280;10749;46.296;7.524;2023-06-10T11:07:12;94615.56;;;22.99;58.96
21182;BME280;10749;46.296;7.524;2023-06-10T11:09:59;94613.19;;;23.08;58.62
21182;BME280;10749;46.296;7.524;2023-06-10T11:12:25;94609.97;;;23.06;58.60
21182;BME280;10749;46.296;7.524;2023-06-10T11:14:54;94615.28;;;22.95;58.60
21182;BME280;10749;46.296;7.524;2023-06-10T11:17:20;94615.56;;;22.94;58.72
21182;BME280;10749;46.296;7.524;2023-06-10T11:19:46;94614.47;;;22.95;58.44
21182;BME280;10749;46.296;7.524;2023-06-10T11:22:16;94615.03;;;22.97;58.77
21182;BME280;10749;46.296;7.524;2023-06-10T11:24:47;94614.81;;;23.09;58.73
21182;BME280;10749;46.296;7.524;2023-06-10T11:27:23;94616.75;;;23.13;58.71
21182;BME280;10749;46.296;7.524;2023-06-10T11:32:33;94620.25;;;23.14;58.25
21182;BME280;10749;46.296;7.524;2023-06-10T11:34:59;94624.09;;;23.23;58.62
21182;BME280;10749;46.296;7.524;2023-06-10T11:37:25;94620.59;;;23.32;58.54
21182;BME280;10749;46.296;7.524;2023-06-10T11:39:54;94617.38;;;23.30;58.32
21182;BME280;10749;46.296;7.524;2023-06-10T11:42:21;94617.09;;;23.37;58.18
21182;BME280;10749;46.296;7.524;2023-06-10T11:44:53;94619.91;;;23.52;58.43
21182;BME280;10749;46.296;7.524;2023-06-10T11:47:19;94622.63;;;23.57;58.20
21182;BME280;10749;46.296;7.524;2023-06-10T11:49:45;94617.78;;;23.64;58.32
21182;BME280;10749;46.296;7.524;2023-06-10T11:52:12;94609.97;;;23.68;58.17
21182;BME280;10749;46.296;7.524;2023-06-10T11:54:38;94609.69;;;23.69;58.16
21182;BME280;10749;46.296;7.524;2023-06-10T11:57:03;94618.88;;;23.78;57.67
21182;BME280;10749;46.296;7.524;2023-06-10T11:59:29;94616.47;;;23.82;57.79
21182;BME280;10749;46.296;7.524;2023-06-10T12:01:55;94614.03;;;23.85;57.58
21182;BME280;10749;46.296;7.524;2023-06-10T12:04:21;94604.31;;;23.89;57.55
21182;BME280;10749;46.296;7.524;2023-06-10T12:06:51;94601.13;;;23.98;57.31
21182;BME280;10749;46.296;7.524;2023-06-10T12:14:55;94604.84;;;23.81;56.73
21182;BME280;10749;46.296;7.524;2023-06-10T12:17:42;94599.97;;;23.73;56.53
21182;BME280;10749;46.296;7.524;2023-06-10T12:20:09;94598.91;;;23.79;56.83
21182;BME280;10749;46.296;7.524;2023-06-10T12:22:43;94594.03;;;23.81;56.71
21182;BME280;10749;46.296;7.524;2023-06-10T12:25:09;94599.72;;;23.90;57.04
21182;BME280;10749;46.296;7.524;2023-06-10T12:27:36;94591.63;;;23.90;56.56
21182;BME280;10749;46.296;7.524;2023-06-10T12:30:03;94596.72;;;23.81;56.37
21182;BME280;10749;46.296;7.524;2023-06-10T12:32:43;94583.25;;;23.76;56.40
21182;BME280;10749;46.296;7.524;2023-06-10T12:35:10;94584.06;;;23.77;56.76
21182;BME280;10749;46.296;7.524;2023-06-10T12:37:37;94582.69;;;23.79;56.33
21182;BME280;10749;46.296;7.524;2023-06-10T12:40:04;94577.28;;;23.74;55.63
21182;BME280;10749;46.296;7.524;2023-06-10T12:42:31;94578.88;;;23.70;55.99
21182;BME280;10749;46.296;7.524;2023-06-10T12:44:58;94569.19;;;23.84;56.25
21182;BME280;10749;46.296;7.524;2023-06-10T12:47:33;94570.81;;;23.96;56.03
21182;BME280;10749;46.296;7.524;2023-06-10T12:50:04;94574.09;;;23.98;55.90
21182;BME280;10749;46.296;7.524;2023-06-10T12:52:30;94566.75;;;23.98;55.99
21182;BME280;10749;46.296;7.524;2023-06-10T12:54:56;94567.59;;;24.04;56.07
21182;BME280;10749;46.296;7.524;2023-06-10T12:57:22;94567.06;;;24.02;56.05
21182;BME280;10749;46.296;7.524;2023-06-10T12:59:47;94565.47;;;24.16;55.98
21182;BME280;10749;46.296;7.524;2023-06-10T13:02:20;94561.38;;;24.13;55.84
21182;BME280;10749;46.296;7.524;2023-06-10T13:04:49;94565.19;;;24.17;55.81
21182;BME280;10749;46.296;7.524;2023-06-10T13:07:14;94562.72;;;24.11;54.97
21182;BME280;10749;46.296;7.524;2023-06-10T13:09:40;94561.94;;;24.15;55.30
21182;BME280;10749;46.296;7.524;2023-06-10T13:12:06;94557.09;;;24.17;55.01
21182;BME280;10749;46.296;7.524;2023-06-10T13:14:31;94556.28;;;24.17;54.92